createdAt,value
2022-12-08T00:01:26.967Z,12.20
2022-12-08T00:03:54.083Z,17.63
2022-12-08T00:06:42.346Z,16.83
2022-12-08T00:09:38.344Z,13.88
2022-12-08T00:12:08.650Z,12.02
2022-12-08T00:14:46.157Z,17.00
2022-12-08T00:17:15.238Z,19.08
2022-12-08T00:19:42.913Z,15.40
2022-12-08T00:22:11.173Z,18.58
2022-12-08T00:24:40.046Z,13.23
2022-12-08T00:27:11.290Z,11.70
2022-12-08T00:29:38.239Z,16.80
2022-12-08T00:32:05.881Z,14.48
2022-12-08T00:34:33.345Z,13.98
2022-12-08T00:37:00.314Z,13.40
2022-12-08T00:39:27.099Z,15.67
2022-12-08T00:42:12.329Z,16.88
2022-12-08T00:44:40.631Z,11.13
2022-12-08T00:47:07.265Z,15.23
2022-12-08T00:49:34.044Z,14.85
2022-12-08T00:52:01.357Z,17.58
2022-12-08T00:54:28.164Z,11.23
2022-12-08T00:56:54.946Z,16.15
2022-12-08T01:01:41.631Z,17.65
2022-12-08T01:04:12.988Z,9.93
2022-12-08T01:06:39.809Z,15.35
2022-12-08T01:09:07.694Z,16.35
2022-12-08T01:11:35.336Z,15.60
2022-12-08T01:14:02.185Z,16.98
2022-12-08T01:16:32.690Z,17.75
2022-12-08T01:19:00.613Z,19.10
2022-12-08T01:21:27.800Z,16.30
2022-12-08T01:23:55.967Z,19.83
2022-12-08T01:26:22.602Z,21.35
2022-12-08T01:28:49.210Z,17.98
2022-12-08T01:31:18.915Z,15.63
2022-12-08T01:33:45.997Z,19.90
2022-12-08T01:36:26.945Z,21.97
2022-12-08T01:38:54.767Z,17.60
2022-12-08T01:41:25.227Z,17.83
2022-12-08T01:44:04.130Z,19.75
2022-12-08T01:46:33.277Z,16.58
2022-12-08T01:49:26.580Z,20.13
2022-12-08T01:52:00.317Z,16.85
2022-12-08T01:54:32.183Z,14.88
2022-12-08T01:57:16.717Z,14.23
2022-12-08T01:59:48.853Z,18.52
2022-12-08T02:02:15.757Z,19.35
2022-12-08T02:04:45.734Z,18.50
2022-12-08T02:07:14.619Z,21.13
2022-12-08T02:09:42.797Z,19.25
2022-12-08T02:12:10.992Z,20.23
2022-12-08T02:14:38.021Z,15.63
2022-12-08T02:17:43.166Z,19.03
2022-12-08T02:20:42.435Z,18.88
2022-12-08T02:23:30.327Z,18.38
2022-12-08T02:26:14.388Z,17.33
2022-12-08T02:29:00.015Z,17.83
2022-12-08T02:31:56.261Z,18.38
2022-12-08T02:34:44.119Z,13.60
2022-12-08T02:37:37.616Z,9.65
2022-12-08T02:40:33.283Z,17.50
2022-12-08T02:43:23.691Z,13.48
2022-12-08T02:46:03.570Z,11.23
2022-12-08T02:48:32.834Z,14.43
2022-12-08T02:51:00.185Z,13.80
2022-12-08T02:53:33.304Z,11.07
2022-12-08T02:56:37.480Z,12.00
2022-12-08T02:59:24.470Z,13.93
2022-12-08T03:02:06.137Z,13.60
2022-12-08T03:04:40.260Z,9.63
2022-12-08T03:07:37.325Z,12.93
2022-12-08T03:10:19.614Z,12.60
2022-12-08T03:12:51.023Z,12.80
2022-12-08T03:15:21.530Z,11.25
2022-12-08T03:17:54.326Z,15.13
2022-12-08T03:20:24.220Z,16.05
2022-12-08T03:22:54.043Z,14.60
2022-12-08T03:25:24.666Z,15.27
2022-12-08T03:27:52.425Z,14.13
2022-12-08T03:30:19.403Z,11.05
2022-12-08T03:32:57.446Z,11.07
2022-12-08T03:35:30.234Z,12.43
2022-12-08T03:38:11.784Z,9.60
2022-12-08T03:40:39.283Z,6.72
2022-12-08T03:43:06.125Z,8.52
2022-12-08T03:45:33.608Z,7.43
2022-12-08T03:48:00.496Z,6.50
2022-12-08T03:50:27.521Z,7.03
2022-12-08T03:52:54.153Z,6.03
2022-12-08T03:55:21.654Z,6.90
2022-12-08T03:57:48.581Z,8.52
2022-12-08T04:00:17.096Z,8.55
2022-12-08T04:02:43.855Z,6.63
2022-12-08T04:05:10.868Z,11.25
2022-12-08T04:07:37.690Z,8.07
2022-12-08T04:10:05.736Z,8.45
2022-12-08T04:12:32.773Z,11.50
2022-12-08T04:14:59.497Z,9.90
2022-12-08T04:17:26.160Z,11.00
2022-12-08T04:19:52.777Z,9.05
2022-12-08T04:22:19.480Z,11.73
2022-12-08T04:24:46.174Z,8.85
2022-12-08T04:27:12.720Z,7.78
2022-12-08T04:29:39.314Z,12.40
2022-12-08T04:32:06.009Z,8.13
2022-12-08T04:34:32.643Z,11.77
2022-12-08T04:36:59.205Z,11.75
2022-12-08T04:39:25.942Z,14.10
2022-12-08T04:41:52.635Z,11.75
2022-12-08T04:44:19.374Z,14.80
2022-12-08T04:46:46.387Z,13.57
2022-12-08T04:49:13.052Z,13.73
2022-12-08T04:51:39.913Z,9.00
2022-12-08T04:54:06.738Z,10.05
2022-12-08T04:56:33.312Z,15.18
2022-12-08T04:58:59.926Z,9.48
2022-12-08T05:01:26.767Z,11.82
2022-12-08T05:03:53.493Z,15.38
2022-12-08T05:06:20.175Z,14.18
2022-12-08T05:08:46.820Z,16.45
2022-12-08T05:11:13.716Z,17.05
2022-12-08T05:13:40.498Z,18.77
2022-12-08T05:16:10.733Z,20.20
2022-12-08T05:18:37.951Z,13.68
2022-12-08T05:21:05.679Z,13.97
2022-12-08T05:23:32.766Z,17.38
2022-12-08T05:26:00.394Z,13.87
2022-12-08T05:28:43.814Z,20.77
2022-12-08T05:31:12.609Z,12.60
2022-12-08T05:33:39.753Z,18.95
2022-12-08T05:36:07.002Z,16.53
2022-12-08T05:38:34.032Z,11.90
2022-12-08T05:41:00.750Z,20.30
2022-12-08T05:43:27.604Z,22.00
2022-12-08T05:45:54.314Z,10.90
2022-12-08T05:48:20.997Z,17.38
2022-12-08T05:50:48.948Z,12.60
2022-12-08T05:55:43.508Z,8.55
2022-12-08T05:58:19.248Z,16.02
2022-12-08T06:00:46.854Z,19.98
2022-12-08T06:03:14.607Z,11.55
2022-12-08T06:05:42.522Z,17.73
2022-12-08T06:08:09.539Z,20.15
2022-12-08T06:10:38.867Z,16.30
2022-12-08T06:13:05.593Z,19.13
2022-12-08T06:15:35.135Z,21.23
2022-12-08T06:18:01.946Z,12.25
2022-12-08T06:20:28.922Z,10.52
2022-12-08T06:22:56.734Z,13.30
2022-12-08T06:25:24.200Z,8.60
2022-12-08T06:27:51.398Z,11.23
2022-12-08T06:30:19.477Z,21.63
2022-12-08T06:32:46.322Z,21.10
2022-12-08T06:35:13.003Z,12.77
2022-12-08T06:37:42.717Z,19.10
2022-12-08T06:40:09.783Z,12.23
2022-12-08T06:42:45.186Z,12.67
2022-12-08T06:45:17.513Z,11.63
2022-12-08T06:47:45.151Z,17.55
2022-12-08T06:50:13.081Z,15.50
2022-12-08T06:52:51.595Z,12.93
2022-12-08T06:55:50.684Z,22.33
2022-12-08T06:58:09.773Z,17.70
2022-12-08T07:00:36.442Z,20.08
2022-12-08T07:03:03.496Z,17.33
2022-12-08T07:05:30.484Z,18.20
2022-12-08T07:07:57.672Z,22.13
2022-12-08T07:10:24.368Z,13.93
2022-12-08T07:12:50.922Z,19.40
2022-12-08T07:15:17.868Z,9.85
2022-12-08T07:17:44.564Z,10.30
2022-12-08T07:20:11.549Z,15.82
2022-12-08T07:22:38.157Z,20.58
2022-12-08T07:25:05.631Z,21.83
2022-12-08T07:27:32.267Z,14.15
2022-12-08T07:33:50.512Z,13.27
2022-12-08T07:36:17.218Z,21.67
2022-12-08T07:38:43.976Z,14.93
2022-12-08T07:41:19.108Z,12.05
2022-12-08T07:43:45.793Z,16.40
2022-12-08T07:46:14.538Z,11.25
2022-12-08T07:48:42.083Z,18.63
2022-12-08T07:51:12.691Z,15.70
2022-12-08T07:53:47.280Z,16.67
2022-12-08T07:56:18.899Z,18.73
2022-12-08T07:58:46.901Z,16.27
2022-12-08T08:01:28.754Z,15.38
2022-12-08T08:03:57.548Z,19.02
2022-12-08T08:06:24.853Z,10.40
2022-12-08T08:08:51.460Z,16.42
2022-12-08T08:11:21.396Z,14.80
2022-12-08T08:13:49.826Z,8.90
2022-12-08T08:16:16.882Z,8.10
2022-12-08T08:18:43.836Z,12.57
2022-12-08T08:23:57.125Z,12.33
2022-12-08T08:26:23.860Z,12.75
2022-12-08T08:28:50.464Z,17.98
2022-12-08T08:31:17.163Z,15.75
2022-12-08T08:33:43.894Z,16.35
2022-12-08T08:36:11.636Z,14.32
2022-12-08T08:38:42.972Z,18.20
2022-12-08T08:41:12.906Z,22.45
2022-12-08T08:43:39.744Z,21.92
2022-12-08T08:46:07.438Z,20.55
2022-12-08T08:48:34.346Z,10.50
2022-12-08T08:51:08.947Z,12.77
2022-12-08T08:53:36.021Z,15.60
2022-12-08T08:56:05.206Z,11.53
2022-12-08T08:58:31.814Z,18.05
2022-12-08T09:00:58.471Z,19.88
2022-12-08T09:03:25.213Z,20.17
2022-12-08T09:05:52.727Z,18.08
2022-12-08T09:08:19.660Z,19.23
2022-12-08T09:10:46.426Z,19.35
2022-12-08T09:13:13.299Z,20.60
2022-12-08T09:15:41.650Z,18.17
2022-12-08T09:18:08.362Z,19.27
2022-12-08T09:20:35.948Z,14.10
2022-12-08T09:23:02.713Z,15.00
2022-12-08T09:25:29.555Z,18.83
2022-12-08T09:27:56.199Z,19.33
2022-12-08T09:30:23.120Z,18.90
2022-12-08T09:32:52.944Z,9.90
2022-12-08T09:35:19.717Z,19.00
2022-12-08T09:37:46.407Z,17.70
2022-12-08T09:40:19.627Z,14.90
2022-12-08T09:42:58.093Z,14.20
2022-12-08T09:45:28.998Z,13.85
2022-12-08T09:48:19.342Z,17.30
2022-12-08T09:50:52.718Z,10.80
2022-12-08T09:53:35.274Z,15.35
2022-12-08T09:56:21.154Z,8.80
2022-12-08T09:58:58.203Z,10.73
2022-12-08T10:01:29.920Z,12.73
2022-12-08T10:03:56.972Z,13.95
2022-12-08T10:06:46.679Z,11.40
2022-12-08T10:09:39.294Z,10.55
2022-12-08T10:12:17.568Z,10.30
2022-12-08T10:14:49.275Z,6.88
2022-12-08T10:17:22.138Z,3.83
2022-12-08T10:19:51.658Z,8.63
2022-12-08T10:22:24.147Z,8.38
2022-12-08T10:25:20.982Z,4.75
2022-12-08T10:27:53.503Z,4.65
2022-12-08T10:30:22.205Z,7.28
2022-12-08T10:32:51.173Z,9.23
2022-12-08T10:35:19.987Z,7.38
2022-12-08T10:37:58.361Z,7.55
2022-12-08T10:40:28.704Z,9.75
2022-12-08T10:42:58.603Z,11.48
2022-12-08T10:45:27.046Z,9.85
2022-12-08T10:48:09.996Z,9.80
2022-12-08T10:50:45.676Z,10.25
2022-12-08T10:53:30.516Z,10.15
2022-12-08T10:56:03.145Z,9.73
2022-12-08T10:58:34.162Z,9.93
2022-12-08T11:01:06.312Z,10.80
2022-12-08T11:03:44.890Z,10.82
2022-12-08T11:06:28.696Z,8.20
2022-12-08T11:09:00.946Z,6.00
2022-12-08T11:11:45.139Z,11.40
2022-12-08T11:14:31.824Z,9.35
2022-12-08T11:17:12.026Z,10.18
2022-12-08T11:19:40.795Z,9.30
2022-12-08T11:22:32.588Z,6.10
2022-12-08T11:25:16.737Z,8.18
2022-12-08T11:27:46.989Z,8.98
2022-12-08T11:30:21.329Z,7.28
2022-12-08T11:32:51.316Z,5.55
2022-12-08T11:35:26.982Z,8.68
2022-12-08T11:38:13.434Z,7.32
2022-12-08T11:40:44.633Z,8.27
2022-12-08T11:43:25.688Z,7.90
2022-12-08T11:46:16.703Z,10.48
2022-12-08T11:49:06.673Z,9.32
2022-12-08T11:51:38.780Z,9.45
2022-12-08T11:54:24.467Z,7.03
2022-12-08T11:56:58.844Z,8.20
2022-12-08T11:59:49.856Z,9.02
2022-12-08T12:02:27.419Z,8.43
2022-12-08T12:05:08.151Z,9.63
2022-12-08T12:08:03.172Z,9.13
2022-12-08T12:10:48.232Z,10.35
2022-12-08T12:13:15.111Z,8.45
2022-12-08T12:16:40.734Z,6.88
2022-12-08T12:19:15.673Z,4.45
2022-12-08T12:21:46.740Z,6.30
2022-12-08T12:24:39.881Z,5.47
2022-12-08T12:27:15.574Z,7.20
2022-12-08T12:29:52.232Z,7.80
2022-12-08T12:36:18.260Z,6.78
2022-12-08T12:39:09.485Z,7.88
2022-12-08T12:41:42.016Z,10.07
2022-12-08T12:44:15.564Z,8.85
2022-12-08T12:46:51.533Z,8.50
2022-12-08T12:49:39.946Z,9.73
2022-12-08T12:52:19.036Z,10.27
2022-12-08T12:55:11.525Z,9.23
2022-12-08T12:57:50.342Z,8.57
2022-12-08T13:00:22.450Z,10.05
2022-12-08T13:02:50.134Z,11.57
2022-12-08T13:05:25.089Z,10.68
2022-12-08T13:07:54.840Z,10.50
2022-12-08T13:10:50.101Z,10.73
2022-12-08T13:13:19.995Z,12.10
2022-12-08T13:16:18.759Z,9.63
2022-12-08T16:32:04.417Z,6.07
2022-12-08T16:34:40.097Z,7.10
2022-12-08T16:37:08.342Z,5.30
2022-12-08T16:39:35.088Z,3.78
2022-12-08T16:42:20.612Z,4.93
2022-12-08T16:44:47.220Z,3.95
2022-12-08T16:47:21.435Z,4.65
2022-12-08T16:49:48.228Z,5.55
2022-12-08T16:52:15.605Z,3.53
2022-12-08T16:54:51.540Z,4.15
2022-12-08T16:57:20.087Z,5.78
2022-12-08T16:59:47.078Z,4.88
2022-12-08T17:02:16.760Z,5.03
2022-12-08T17:04:43.733Z,5.55
2022-12-08T17:13:08.828Z,9.48
2022-12-08T17:15:38.451Z,3.28
2022-12-08T17:18:05.258Z,5.75
2022-12-08T17:20:48.579Z,3.55
2022-12-08T17:26:36.281Z,6.13
2022-12-08T17:29:38.135Z,7.13
2022-12-08T17:32:24.166Z,6.15
2022-12-08T17:34:56.711Z,7.68
2022-12-08T17:37:33.676Z,8.25
2022-12-08T17:40:10.093Z,6.97
2022-12-08T17:42:47.702Z,5.47
2022-12-08T17:48:38.985Z,7.97
2022-12-08T17:52:22.332Z,6.20
2022-12-08T17:54:29.720Z,7.80
2022-12-08T17:57:03.989Z,8.55
2022-12-08T17:59:31.314Z,7.65
2022-12-08T18:02:00.326Z,9.05
2022-12-08T18:04:33.717Z,9.60
2022-12-08T18:07:05.019Z,8.00
2022-12-08T18:09:45.556Z,8.65
2022-12-08T18:12:23.270Z,7.43
2022-12-08T18:17:38.691Z,7.82
2022-12-08T18:20:09.517Z,6.22
2022-12-08T18:22:36.588Z,6.70
2022-12-08T18:25:04.666Z,6.20
2022-12-08T18:27:42.990Z,5.18
2022-12-08T18:30:21.908Z,5.35
2022-12-08T18:32:57.578Z,7.72
2022-12-08T18:35:24.442Z,7.18
2022-12-08T18:40:46.509Z,7.40
2022-12-08T18:43:27.293Z,7.90
2022-12-08T18:46:07.705Z,5.38
2022-12-08T18:48:45.729Z,5.93
2022-12-08T18:51:14.483Z,6.63
2022-12-08T18:53:47.892Z,8.90
2022-12-08T18:58:41.258Z,8.35
2022-12-08T19:06:45.380Z,9.23
2022-12-08T19:11:53.353Z,5.32
2022-12-08T19:14:28.779Z,8.85
2022-12-08T19:16:56.413Z,6.10
2022-12-08T19:19:23.112Z,7.60
2022-12-08T19:21:50.106Z,6.03
2022-12-08T19:24:17.113Z,8.33
2022-12-08T19:26:44.195Z,9.50
2022-12-08T19:29:14.499Z,7.50
2022-12-08T19:31:41.716Z,8.20
2022-12-08T19:34:09.692Z,8.48
2022-12-08T19:40:05.919Z,6.15
2022-12-08T19:42:51.164Z,4.70
2022-12-08T19:45:25.815Z,9.30
2022-12-08T19:47:52.524Z,9.52
2022-12-08T19:50:37.718Z,7.32
2022-12-08T19:53:11.938Z,9.80
2022-12-08T19:55:39.678Z,10.45
2022-12-08T19:58:07.543Z,8.85
2022-12-08T20:00:35.008Z,10.32
2022-12-08T20:03:03.084Z,9.10
2022-12-08T20:05:31.364Z,9.50
2022-12-08T20:08:04.327Z,8.48
2022-12-08T20:10:36.916Z,8.50
2022-12-08T20:13:23.103Z,10.75
2022-12-08T20:15:50.388Z,9.05
2022-12-08T20:18:20.637Z,10.35
2022-12-08T20:20:47.645Z,10.05
2022-12-08T20:23:15.439Z,10.70
2022-12-08T20:25:44.817Z,11.63
2022-12-08T20:28:11.753Z,8.35
2022-12-08T20:30:39.357Z,10.45
2022-12-08T20:33:06.548Z,10.60
2022-12-08T20:35:34.614Z,11.43
2022-12-08T20:38:07.407Z,10.25
2022-12-08T20:40:34.038Z,10.40
2022-12-08T20:43:00.895Z,10.00
2022-12-08T20:45:27.595Z,11.43
2022-12-08T20:47:54.444Z,11.48
2022-12-08T20:50:37.039Z,12.68
2022-12-08T20:53:03.953Z,12.02
2022-12-08T20:55:30.666Z,11.70
2022-12-08T20:57:57.413Z,11.85
2022-12-08T21:00:26.137Z,12.18
2022-12-08T21:02:56.956Z,14.40
2022-12-08T21:05:26.457Z,14.85
2022-12-08T21:07:55.028Z,12.45
2022-12-08T21:10:24.020Z,10.98
2022-12-08T21:13:02.506Z,10.65
2022-12-08T21:15:29.161Z,12.18
2022-12-08T21:17:59.366Z,11.68
2022-12-08T21:20:32.692Z,12.10
2022-12-08T21:23:02.380Z,10.90
2022-12-08T21:25:29.203Z,12.95
2022-12-08T21:27:58.996Z,9.90
2022-12-08T21:30:25.762Z,11.32
2022-12-08T21:32:52.691Z,12.48
2022-12-08T21:35:30.700Z,9.07
2022-12-08T21:38:00.330Z,10.68
2022-12-08T21:40:27.403Z,12.00
2022-12-08T21:42:54.225Z,11.30
2022-12-08T21:45:27.075Z,12.63
2022-12-08T21:47:59.595Z,11.80
2022-12-08T21:50:28.530Z,10.55
2022-12-08T21:52:59.796Z,10.77
2022-12-08T21:55:26.921Z,10.73
2022-12-08T21:58:03.440Z,9.80
2022-12-08T22:00:38.569Z,10.05
2022-12-08T22:06:01.005Z,11.73
2022-12-08T22:08:28.277Z,11.90
2022-12-08T22:10:55.232Z,11.98
2022-12-08T22:13:24.915Z,11.90
2022-12-08T22:16:02.106Z,10.38
2022-12-08T22:18:29.324Z,11.32
2022-12-08T22:20:56.569Z,9.40
2022-12-08T22:23:26.873Z,11.00
2022-12-08T22:26:02.111Z,11.82
2022-12-08T22:28:45.397Z,11.20
2022-12-08T22:31:15.421Z,11.35
2022-12-08T22:33:51.338Z,11.88
2022-12-08T22:36:25.842Z,11.77
2022-12-08T22:38:54.100Z,11.20
2022-12-08T22:41:22.156Z,11.13
2022-12-08T22:43:49.693Z,11.82
2022-12-08T22:49:08.842Z,10.75
2022-12-08T22:51:40.442Z,12.35
2022-12-08T22:54:37.987Z,12.63
2022-12-08T22:57:26.993Z,11.32
2022-12-08T22:59:53.610Z,13.43
2022-12-08T23:02:21.718Z,14.02
2022-12-08T23:04:48.835Z,11.73
2022-12-08T23:07:16.791Z,13.23
2022-12-08T23:14:48.904Z,12.57
2022-12-08T23:17:15.977Z,12.60
2022-12-08T23:19:46.611Z,12.37
2022-12-08T23:22:13.947Z,15.18
2022-12-08T23:24:40.858Z,12.23
2022-12-08T23:27:08.259Z,11.30
2022-12-08T23:29:35.642Z,10.07
2022-12-08T23:32:02.518Z,13.43
2022-12-08T23:34:29.668Z,11.43
2022-12-08T23:37:08.318Z,11.40
2022-12-08T23:39:35.571Z,10.55
2022-12-08T23:42:05.765Z,8.88
2022-12-08T23:44:35.815Z,10.80
2022-12-08T23:49:52.020Z,10.70
2022-12-08T23:52:18.836Z,11.63
2022-12-08T23:54:45.723Z,13.77
2022-12-08T23:57:12.822Z,12.90
2022-12-08T23:59:39.707Z,9.50
